Terminal Aerodrome Forecast
Issued by NWS

Current Version | Previous Version | Text Only | Print | Product List | Glossary On
Versions: 1 2 3 4 5 6 7 8 9 10 11 12 13 14
000
FTUS44 KTSA 290500
TAFRVS
TAF
KRVS 290520Z 2906/3006 18010KT P6SM SCT250 WS012/19055KT
     FM291500 20012G22KT P6SM FEW250
     FM292300 20010KT P6SM SCT250=

USA.gov is the U.S. government's official web portal to all federal, state and local government web resources and services.